РУС

ENG

 
  Pireps - S7
 

Рейс SBI2161

  • Выполнял: Sergey Radchenko
  • Аэропорт отправления: Domodedovo Airport (UUDD)
  • Аэропорт назначения: Astrahan (URWA)
  • Тип ВС: A320-214 (VQ-BET)
  • Время полёта: 02.06
  • Дата полёта: 25.11.2021
  • Маршрут: DK FV R11 PT G724 ST R120 BASKO
  • Статус: Одобрен

Детали полёта
Gross Revenue:
(125 load / $ 180.00 per unit
$ 22, 500.00
Fuel Cost:
(2966 fuel used @ 5.1 / unit)
$ 15, 126.60


Дополнительная информация о полёте:

Лог

Aircraft Used in flight is Airbus A320 Neo Asobo
18:26 Boarding
18:26 Brakes are On
18:26 Navigation Lights ON at 550 AGL
18:30 Beacon Lights ON at 550 AGL
18:31 Engine 2 Started
18:32 Engine 1 Started
18:33 Landing Lights ON at 550 AGL
18:33 Taxi Lights ON at 550 AGL
18:34 Brakes are Released
18:34Flaps 1 Selected at 550ft and 0kts
18:34Flaps 2 Selected at 550ft and 0kts
18:39 Strobe Lights ON at 550 AGL
18:40 You Took off @ 141 Knots and Flaps at Position 2
Departure Weather
UUDD 251530Z 20004MPS 180V240 9000 -SHRA SCT008 BKN033CB 02/01 Q1011 R88/520240 NOSIG
18:40 Paused
18:40 Unpaused
18:40Flaps 1 Selected at 1060ft and 171kts
18:40 Landing Gear Up @ 172 Knots and 1150 Feet
18:41 You exceeded maximum bank angle
18:41Flaps Retracted at 2640ft and 179kts
18:41 Taxi Lights OFF at 3670 AGL
18:42 Taxi Lights ON at 3770 AGL
18:42 Taxi Lights OFF at 3830 AGL
18:42 Landing Lights OFF at 4150 AGL
19:00 Overspeed
19:00 Recovered from Overspeed
19:39 Overspeed
19:40 Recovered from Overspeed
19:46 Strobe Lights OFF at 29550 AGL
19:46 Strobe Lights ON at 29550 AGL
20:13 Taxi Lights ON at 5360 AGL
20:13 Taxi Lights OFF at 5360 AGL
20:13 Taxi Lights ON at 5360 AGL
20:13 Landing Lights ON at 5360 AGL
20:15Flaps 1 Selected at 4460ft and 172kts
20:17Flaps 2 Selected at 4460ft and 151kts
20:19Flaps 3 Selected at 2840ft and 152kts
20:19 Landing Gear Down @ 150 Knots and 2530 Feet
20:19Flaps 4 Selected at 2480ft and 148kts
20:33 You Landed @ 118 Knots and with -200 Vertical Speed
Arrival Weather
URWA 251500Z 23001MPS CAVOK M03/M06 Q1030 R27/010070 NOSIG RMK QFE775/1033
20:33 Paused
20:33 Brakes are On
20:33 Unpaused
Pirep logged with S7 Tracking 1.0.0.14



Общая оценка полета : 100%




Route Map



 
 
   
 
Новости

29.12.2021 - C Новым годом

Дорогие друзья, поздравляю вас с Наступающим Новым годом!
Желаем успехов, приятных взлетов и мягких посадок!

   
 
Авторизация






Регистрация

Восстановить пароль?

Мы в соц. сетях

      



   
 





   
 


   
 


Яндекс.Метрика

www.va-s7.ru 2011-2021
Все права защищены.



Минуточку внимания!
Сайт va-s7.ru не является коммерческим проектом. Мы не имеем отношения к торговым маркам "S7" и "Globus" и их представителям.
Эмблемы на сайте являются собственностью соответствующих компаний.

аэронавигационная метеорологическая и любая другая информация с данного ресурса ни в коем случае не должна использоваться для реальных полетов